createdAt,value
2023-03-26T00:00:36.124Z,14.30
2023-03-26T00:01:36.168Z,13.30
2023-03-26T00:02:36.186Z,17.60
2023-03-26T00:03:36.097Z,19.60
2023-03-26T00:04:36.083Z,16.20
2023-03-26T00:05:36.145Z,17.10
2023-03-26T00:06:36.081Z,16.70
2023-03-26T00:07:36.056Z,17.80
2023-03-26T00:08:36.050Z,14.60
2023-03-26T00:09:36.031Z,18.60
2023-03-26T00:10:36.089Z,18.20
2023-03-26T00:11:36.024Z,17.70
2023-03-26T00:12:36.014Z,20.10
2023-03-26T00:13:35.985Z,22.00
2023-03-26T00:14:35.984Z,22.10
2023-03-26T00:15:35.965Z,20.10
2023-03-26T00:16:36.023Z,23.50
2023-03-26T00:17:35.989Z,19.00
2023-03-26T00:18:35.940Z,17.80
2023-03-26T00:19:36.009Z,18.60
2023-03-26T00:20:35.931Z,17.50
2023-03-26T00:21:35.921Z,20.00
2023-03-26T00:22:35.900Z,20.60
2023-03-26T00:23:35.896Z,17.90
2023-03-26T00:24:35.881Z,21.10
2023-03-26T00:25:35.867Z,20.60
2023-03-26T00:26:35.873Z,22.10
2023-03-26T00:27:35.867Z,20.70
2023-03-26T00:28:35.847Z,19.30
2023-03-26T00:29:35.878Z,20.30
2023-03-26T00:30:35.891Z,15.20
2023-03-26T00:31:35.827Z,18.90
2023-03-26T00:32:35.826Z,17.90
2023-03-26T00:33:35.789Z,13.90
2023-03-26T00:34:35.781Z,19.30
2023-03-26T00:35:35.766Z,18.00
2023-03-26T00:36:35.878Z,14.30
2023-03-26T00:37:35.750Z,16.50
2023-03-26T00:38:35.803Z,15.70
2023-03-26T00:39:35.733Z,8.80
2023-03-26T00:40:35.730Z,7.20
2023-03-26T00:41:35.750Z,11.40
2023-03-26T00:42:35.750Z,12.90
2023-03-26T00:43:35.746Z,8.20
2023-03-26T00:44:36.578Z,9.00
2023-03-26T00:45:35.698Z,7.90
2023-03-26T00:46:35.707Z,7.90
2023-03-26T00:47:35.661Z,9.60
2023-03-26T00:48:44.594Z,9.50
2023-03-26T00:49:36.638Z,7.00
2023-03-26T00:50:35.628Z,9.90
2023-03-26T00:51:35.903Z,9.70
2023-03-26T00:52:36.133Z,8.20
2023-03-26T00:53:35.590Z,7.70
2023-03-26T00:54:35.606Z,6.90
2023-03-26T00:55:35.606Z,8.80
2023-03-26T00:56:35.608Z,5.70
2023-03-26T00:57:36.332Z,7.40
2023-03-26T00:58:35.542Z,6.20
2023-03-26T00:59:35.539Z,6.80
2023-03-26T01:00:35.529Z,5.40
2023-03-26T01:01:35.639Z,7.50
2023-03-26T01:02:35.568Z,5.60
2023-03-26T01:03:35.658Z,5.90
2023-03-26T01:04:35.648Z,4.10
2023-03-26T01:05:35.495Z,3.80
2023-03-26T01:06:35.535Z,3.30
2023-03-26T01:07:35.452Z,4.80
2023-03-26T01:08:35.471Z,4.30
2023-03-26T01:09:35.430Z,4.40
2023-03-26T01:10:35.420Z,1.60
2023-03-26T01:11:35.416Z,3.50
2023-03-26T01:12:35.413Z,3.90
2023-03-26T01:13:35.380Z,3.80
2023-03-26T01:14:35.390Z,3.60
2023-03-26T01:15:35.423Z,3.80
2023-03-26T01:16:35.374Z,3.10
2023-03-26T01:17:35.345Z,5.20
2023-03-26T01:18:35.333Z,2.10
2023-03-26T01:19:35.316Z,2.90
2023-03-26T01:20:35.341Z,2.00
2023-03-26T01:21:35.307Z,2.60
2023-03-26T01:22:35.289Z,2.60
2023-03-26T01:23:35.309Z,3.30
2023-03-26T01:24:35.269Z,3.70
2023-03-26T01:25:35.252Z,11.20
2023-03-26T01:26:35.268Z,1.90
2023-03-26T01:27:35.244Z,2.10
2023-03-26T01:28:35.228Z,2.50
2023-03-26T01:29:35.230Z,1.60
2023-03-26T01:30:35.210Z,3.30
2023-03-26T01:31:35.217Z,2.40
2023-03-26T01:32:35.263Z,1.50
2023-03-26T01:33:35.283Z,1.50
2023-03-26T01:34:35.162Z,1.60
2023-03-26T01:35:35.224Z,1.40
2023-03-26T01:36:35.177Z,3.40
2023-03-26T01:37:35.144Z,4.60
2023-03-26T01:38:35.126Z,2.00
2023-03-26T01:39:35.124Z,2.50
2023-03-26T01:40:35.105Z,4.50
2023-03-26T01:41:35.111Z,3.20
2023-03-26T01:42:35.081Z,1.80
2023-03-26T01:43:35.078Z,1.90
2023-03-26T01:44:35.063Z,3.10
2023-03-26T01:45:35.053Z,3.30
2023-03-26T01:46:35.078Z,2.10
2023-03-26T01:47:35.068Z,2.80
2023-03-26T01:48:35.017Z,2.30
2023-03-26T01:49:35.020Z,1.40
2023-03-26T01:50:34.999Z,2.70
2023-03-26T01:51:35.012Z,2.70
2023-03-26T01:52:34.999Z,4.40
2023-03-26T01:53:34.984Z,2.10
2023-03-26T01:54:34.958Z,3.50
2023-03-26T01:55:34.956Z,4.50
2023-03-26T01:56:35.010Z,2.80
2023-03-26T01:57:34.933Z,3.70
2023-03-26T01:58:34.915Z,1.90
2023-03-26T01:59:34.925Z,5.60
2023-03-26T02:00:34.918Z,1.70
2023-03-26T02:01:35.028Z,3.40
2023-03-26T02:02:35.033Z,3.30
2023-03-26T02:03:34.925Z,1.40
2023-03-26T02:04:34.873Z,2.30
2023-03-26T02:05:34.862Z,2.00
2023-03-26T02:06:34.857Z,3.10
2023-03-26T02:07:34.845Z,3.70
2023-03-26T02:08:34.815Z,3.50
2023-03-26T02:09:34.817Z,2.10
2023-03-26T02:10:34.814Z,3.10
2023-03-26T02:11:35.981Z,3.10
2023-03-26T02:12:34.787Z,2.20
2023-03-26T02:13:34.785Z,2.60
2023-03-26T02:14:34.752Z,2.80
2023-03-26T02:15:34.758Z,2.00
2023-03-26T02:16:34.773Z,4.50
2023-03-26T02:17:34.759Z,2.70
2023-03-26T02:18:34.716Z,4.00
2023-03-26T02:19:34.707Z,2.20
2023-03-26T02:20:34.711Z,3.10
2023-03-26T02:21:34.702Z,1.30
2023-03-26T02:22:34.692Z,3.40
2023-03-26T02:23:34.681Z,3.10
2023-03-26T02:24:34.652Z,3.80
2023-03-26T02:25:34.669Z,1.80
2023-03-26T02:26:34.634Z,4.40
2023-03-26T02:27:34.671Z,1.70
2023-03-26T02:28:34.614Z,2.20
2023-03-26T02:29:34.621Z,2.90
2023-03-26T02:30:34.607Z,2.70
2023-03-26T02:31:34.620Z,3.50
2023-03-26T02:32:34.600Z,3.90
2023-03-26T02:33:34.565Z,3.00
2023-03-26T02:34:34.562Z,4.00
2023-03-26T02:35:34.689Z,3.60
2023-03-26T02:36:34.626Z,1.80
2023-03-26T02:37:34.533Z,4.10
2023-03-26T02:38:34.514Z,2.80
2023-03-26T02:39:34.509Z,3.10
2023-03-26T02:40:34.486Z,4.30
2023-03-26T02:41:34.488Z,2.40
2023-03-26T02:42:34.480Z,2.20
2023-03-26T02:43:34.475Z,2.90
2023-03-26T02:44:34.508Z,1.50
2023-03-26T02:45:34.489Z,7.10
2023-03-26T02:46:34.435Z,2.20
2023-03-26T02:47:34.489Z,3.80
2023-03-26T02:48:34.410Z,2.30
2023-03-26T02:49:34.403Z,3.60
2023-03-26T02:50:34.381Z,2.50
2023-03-26T02:51:34.381Z,2.70
2023-03-26T02:52:34.384Z,1.70
2023-03-26T02:53:34.382Z,1.50
2023-03-26T02:54:34.356Z,1.80
2023-03-26T02:55:34.348Z,1.60
2023-03-26T02:56:34.373Z,1.40
2023-03-26T02:57:34.334Z,1.30
2023-03-26T02:58:34.312Z,1.30
2023-03-26T02:59:34.306Z,2.20
2023-03-26T03:00:34.282Z,1.60
2023-03-26T03:01:34.319Z,1.10
2023-03-26T03:02:34.470Z,2.30
2023-03-26T03:03:34.303Z,2.60
2023-03-26T03:04:34.254Z,3.90
2023-03-26T03:05:34.270Z,1.50
2023-03-26T03:06:34.219Z,2.90
2023-03-26T03:07:34.230Z,1.70
2023-03-26T03:08:34.203Z,1.70
2023-03-26T03:09:34.205Z,2.90
2023-03-26T03:10:34.186Z,2.50
2023-03-26T03:11:34.191Z,1.70
2023-03-26T03:12:34.193Z,3.10
2023-03-26T03:13:34.159Z,2.60
2023-03-26T03:14:34.152Z,4.30
2023-03-26T03:15:34.140Z,2.50
2023-03-26T03:16:34.151Z,1.80
2023-03-26T03:17:34.148Z,2.60
2023-03-26T03:18:34.111Z,2.60
2023-03-26T03:19:34.105Z,2.80
2023-03-26T03:20:34.087Z,1.70
2023-03-26T03:21:34.076Z,2.70
2023-03-26T03:22:34.090Z,3.80
2023-03-26T03:23:34.080Z,2.60
2023-03-26T03:24:34.043Z,3.90
2023-03-26T03:25:34.065Z,3.80
2023-03-26T03:26:34.037Z,1.80
2023-03-26T03:27:34.023Z,2.00
2023-03-26T03:28:34.014Z,2.10
2023-03-26T03:29:34.005Z,2.50
2023-03-26T03:30:33.983Z,3.30
2023-03-26T03:31:33.986Z,3.60
2023-03-26T03:32:33.983Z,2.50
2023-03-26T03:33:33.972Z,3.30
2023-03-26T03:34:33.944Z,1.70
2023-03-26T03:35:33.986Z,2.90
2023-03-26T03:36:33.923Z,3.40
2023-03-26T03:37:33.922Z,3.90
2023-03-26T03:38:33.936Z,4.80
2023-03-26T03:39:33.894Z,5.60
2023-03-26T03:40:33.882Z,3.10
2023-03-26T03:41:33.885Z,5.10
2023-03-26T03:42:33.869Z,5.50
2023-03-26T03:43:33.873Z,1.80
2023-03-26T03:44:33.855Z,4.40
2023-03-26T03:45:33.837Z,4.00
2023-03-26T03:46:33.881Z,6.50
2023-03-26T03:47:33.839Z,5.00
2023-03-26T03:48:33.816Z,4.70
2023-03-26T03:49:33.798Z,6.30
2023-03-26T03:50:35.797Z,6.20
2023-03-26T03:51:33.777Z,8.20
2023-03-26T03:52:33.766Z,5.00
2023-03-26T03:53:33.770Z,3.50
2023-03-26T03:54:33.739Z,4.90
2023-03-26T03:55:33.740Z,4.50
2023-03-26T03:56:33.716Z,5.40
2023-03-26T03:57:33.735Z,5.80
2023-03-26T03:58:33.718Z,6.70
2023-03-26T03:59:33.704Z,5.40
2023-03-26T04:00:33.677Z,7.00
2023-03-26T04:01:33.686Z,7.80
2023-03-26T04:02:33.717Z,6.30
2023-03-26T04:03:34.548Z,9.60
2023-03-26T04:04:33.671Z,5.60
2023-03-26T04:05:33.649Z,9.30
2023-03-26T04:06:33.618Z,4.80
2023-03-26T04:07:33.617Z,5.80
2023-03-26T04:08:33.620Z,8.70
2023-03-26T04:09:33.601Z,7.20
2023-03-26T04:10:33.577Z,9.20
2023-03-26T04:11:33.596Z,6.20
2023-03-26T04:12:33.558Z,10.10
2023-03-26T04:13:33.570Z,8.00
2023-03-26T04:14:33.540Z,9.90
2023-03-26T04:15:33.533Z,9.80
2023-03-26T04:16:33.616Z,12.20
2023-03-26T04:17:33.550Z,9.00
2023-03-26T04:18:33.513Z,9.50
2023-03-26T04:19:33.493Z,13.30
2023-03-26T04:20:33.474Z,11.70
2023-03-26T04:21:33.484Z,16.10
2023-03-26T04:22:33.474Z,13.40
2023-03-26T04:23:33.470Z,11.30
2023-03-26T04:24:33.446Z,14.20
2023-03-26T04:25:33.429Z,14.70
2023-03-26T04:26:33.421Z,13.40
2023-03-26T04:27:33.418Z,21.30
2023-03-26T04:28:33.407Z,12.20
2023-03-26T04:29:33.389Z,19.40
2023-03-26T04:30:33.376Z,18.50
2023-03-26T04:31:33.435Z,18.60
2023-03-26T04:32:33.372Z,13.80
2023-03-26T04:33:33.380Z,15.90
2023-03-26T04:34:33.370Z,17.30
2023-03-26T04:35:33.383Z,13.20
2023-03-26T04:36:33.313Z,14.40
2023-03-26T04:37:33.313Z,18.70
2023-03-26T04:38:33.308Z,18.60
2023-03-26T04:39:33.297Z,21.20
2023-03-26T04:40:33.274Z,20.10
2023-03-26T04:41:33.278Z,20.40
2023-03-26T04:42:33.265Z,26.80
2023-03-26T04:43:33.263Z,27.00
2023-03-26T04:44:33.237Z,25.30
2023-03-26T04:45:33.227Z,19.80
2023-03-26T04:46:33.262Z,24.60
2023-03-26T04:47:33.239Z,25.40
2023-03-26T04:48:33.247Z,20.70
2023-03-26T04:49:33.191Z,28.20
2023-03-26T04:50:33.187Z,25.50
2023-03-26T04:51:33.167Z,27.60
2023-03-26T04:52:33.158Z,29.70
2023-03-26T04:53:33.173Z,27.80
2023-03-26T04:54:33.140Z,23.40
2023-03-26T04:55:33.128Z,40.60
2023-03-26T04:56:33.163Z,40.60
2023-03-26T04:57:33.118Z,18.30
2023-03-26T04:58:33.178Z,18.60
2023-03-26T04:59:33.087Z,21.80
2023-03-26T05:00:33.074Z,19.70
2023-03-26T05:01:33.119Z,16.60
2023-03-26T05:02:33.083Z,18.20
2023-03-26T05:03:33.025Z,17.90
2023-03-26T05:04:33.049Z,16.40
2023-03-26T05:05:33.024Z,19.40
2023-03-26T05:06:33.009Z,22.00
2023-03-26T05:07:33.020Z,20.70
2023-03-26T05:08:33.000Z,23.50
2023-03-26T05:09:33.005Z,20.80
2023-03-26T05:10:32.972Z,23.40
2023-03-26T05:11:32.966Z,19.30
2023-03-26T05:12:32.963Z,28.30
2023-03-26T05:13:32.960Z,21.00
2023-03-26T05:14:33.064Z,20.90
2023-03-26T05:15:32.928Z,22.50
2023-03-26T05:16:32.977Z,23.10
2023-03-26T05:17:32.930Z,19.90
2023-03-26T05:18:32.887Z,21.10
2023-03-26T05:19:32.856Z,27.30
2023-03-26T05:20:32.869Z,26.90
2023-03-26T05:21:32.885Z,24.80
2023-03-26T05:22:32.846Z,32.90
2023-03-26T05:23:32.846Z,26.10
2023-03-26T05:24:32.840Z,27.40
2023-03-26T05:25:32.824Z,31.00
2023-03-26T05:26:32.761Z,28.80
2023-03-26T05:27:32.744Z,30.50
2023-03-26T05:28:32.730Z,25.90
2023-03-26T05:29:32.736Z,27.40
2023-03-26T05:30:32.711Z,28.90
2023-03-26T05:31:32.722Z,26.50
2023-03-26T05:32:32.780Z,23.40
2023-03-26T05:33:32.732Z,25.40
2023-03-26T05:34:32.691Z,27.80
2023-03-26T05:35:32.707Z,34.20
2023-03-26T05:36:32.651Z,29.90
2023-03-26T05:37:32.646Z,24.00
2023-03-26T05:38:32.635Z,31.50
2023-03-26T05:39:32.644Z,33.70
2023-03-26T05:40:32.605Z,27.20
2023-03-26T05:41:32.618Z,37.30
2023-03-26T05:42:32.604Z,32.70
2023-03-26T05:43:32.586Z,26.60
2023-03-26T05:44:32.586Z,40.90
2023-03-26T05:45:32.565Z,29.50
2023-03-26T05:46:32.582Z,24.50
2023-03-26T05:47:32.654Z,28.30
2023-03-26T05:48:32.540Z,33.90
2023-03-26T05:49:32.537Z,38.10
2023-03-26T05:50:32.521Z,37.20
2023-03-26T05:51:32.505Z,35.50
2023-03-26T05:52:32.501Z,35.20
2023-03-26T05:53:32.480Z,33.60
2023-03-26T05:54:32.497Z,33.30
2023-03-26T05:55:32.465Z,31.40
2023-03-26T05:56:32.525Z,34.10
2023-03-26T05:57:32.446Z,39.80
2023-03-26T05:58:32.462Z,31.80
2023-03-26T05:59:32.437Z,31.00
2023-03-26T06:00:32.426Z,34.10
2023-03-26T06:01:32.401Z,37.40
2023-03-26T06:02:32.427Z,37.30
2023-03-26T06:03:32.511Z,39.60
2023-03-26T06:04:32.454Z,44.30
2023-03-26T06:05:32.356Z,34.80
2023-03-26T06:06:33.294Z,35.60
2023-03-26T06:07:32.342Z,42.10
2023-03-26T06:08:32.337Z,41.90
2023-03-26T06:09:32.347Z,53.30
2023-03-26T06:10:32.307Z,37.90
2023-03-26T06:11:32.415Z,41.50
2023-03-26T06:12:32.293Z,35.80
2023-03-26T06:13:32.285Z,36.30
2023-03-26T06:14:32.286Z,42.60
2023-03-26T06:15:32.280Z,34.90
2023-03-26T06:16:32.301Z,35.40
2023-03-26T06:17:32.245Z,30.50
2023-03-26T06:18:32.248Z,49.80
2023-03-26T06:19:32.239Z,41.10
2023-03-26T06:20:32.219Z,39.50
2023-03-26T06:21:32.192Z,40.50
2023-03-26T06:22:32.195Z,39.60
2023-03-26T06:23:32.176Z,37.80
2023-03-26T06:24:32.187Z,38.10
2023-03-26T06:25:32.170Z,42.50
2023-03-26T06:26:32.155Z,42.10
2023-03-26T06:27:32.135Z,35.20
2023-03-26T06:28:32.136Z,42.90
2023-03-26T06:29:32.138Z,44.80
2023-03-26T06:30:32.111Z,34.70
2023-03-26T06:31:32.134Z,38.50
2023-03-26T06:32:32.111Z,39.90
2023-03-26T06:33:32.081Z,34.80
2023-03-26T06:34:32.098Z,48.30
2023-03-26T06:35:32.124Z,43.50
2023-03-26T06:36:32.050Z,36.40
2023-03-26T06:37:32.041Z,34.70
2023-03-26T06:38:32.071Z,44.70
2023-03-26T06:39:32.073Z,35.70
2023-03-26T06:40:32.021Z,39.70
2023-03-26T06:41:31.986Z,47.70
2023-03-26T06:43:08.874Z,41.70
2023-03-26T06:43:32.967Z,41.50
2023-03-26T06:44:31.999Z,48.40
2023-03-26T06:45:31.959Z,42.30
2023-03-26T06:46:31.975Z,42.80
2023-03-26T06:47:31.994Z,41.40
2023-03-26T06:48:31.929Z,42.80
2023-03-26T06:49:31.944Z,40.40
2023-03-26T06:50:31.936Z,43.00
2023-03-26T06:51:31.895Z,39.50
2023-03-26T06:52:31.885Z,40.20
2023-03-26T06:53:31.878Z,45.40
2023-03-26T06:54:31.902Z,42.40
2023-03-26T06:55:31.860Z,37.60
2023-03-26T06:56:31.880Z,46.80
2023-03-26T06:57:31.835Z,44.60
2023-03-26T06:58:31.842Z,44.50
2023-03-26T06:59:31.837Z,44.30
2023-03-26T07:00:31.825Z,43.40
2023-03-26T07:01:31.872Z,48.90
2023-03-26T07:02:31.826Z,46.90
2023-03-26T07:03:31.786Z,43.00
2023-03-26T07:04:32.029Z,49.80
2023-03-26T07:05:31.757Z,40.50
2023-03-26T07:06:31.747Z,50.70
2023-03-26T07:07:31.741Z,40.70
2023-03-26T07:08:31.730Z,44.00
2023-03-26T07:09:31.725Z,44.30
2023-03-26T07:10:31.723Z,38.60
2023-03-26T07:11:31.714Z,39.50
2023-03-26T07:12:31.688Z,41.70
2023-03-26T07:13:31.681Z,44.20
2023-03-26T07:14:31.699Z,40.10
2023-03-26T07:15:31.680Z,44.50
2023-03-26T07:16:31.709Z,43.20
2023-03-26T07:17:31.640Z,46.90
2023-03-26T07:18:31.621Z,46.20
2023-03-26T07:19:31.620Z,43.00
2023-03-26T07:20:31.608Z,39.80
2023-03-26T07:21:31.699Z,40.60
2023-03-26T07:22:31.591Z,44.00
2023-03-26T07:23:31.567Z,38.10
2023-03-26T07:24:31.585Z,50.60
2023-03-26T07:25:31.551Z,43.60
2023-03-26T07:26:31.557Z,44.90
2023-03-26T07:27:31.529Z,46.30
2023-03-26T07:28:31.541Z,47.60
2023-03-26T07:29:31.526Z,37.40
2023-03-26T07:30:31.500Z,51.60
2023-03-26T07:31:31.510Z,43.20
2023-03-26T07:32:31.517Z,43.00
2023-03-26T07:33:31.461Z,41.60
2023-03-26T07:34:31.491Z,46.10
2023-03-26T07:35:31.493Z,42.80
2023-03-26T07:36:31.442Z,44.50
2023-03-26T07:37:31.431Z,44.90
2023-03-26T07:38:31.418Z,46.40
2023-03-26T07:39:31.434Z,47.00
2023-03-26T07:40:31.398Z,40.80
2023-03-26T07:41:31.387Z,44.30
2023-03-26T07:42:31.397Z,47.00
2023-03-26T07:43:31.357Z,41.50
2023-03-26T07:44:32.272Z,41.80
2023-03-26T07:45:31.389Z,35.50
2023-03-26T07:46:31.341Z,39.20
2023-03-26T07:47:31.363Z,42.20
2023-03-26T07:48:31.334Z,42.50
2023-03-26T07:49:31.317Z,43.40
2023-03-26T07:50:31.306Z,39.80
2023-03-26T07:51:31.290Z,44.40
2023-03-26T07:52:31.275Z,43.10
2023-03-26T07:53:31.265Z,42.20
2023-03-26T07:54:31.269Z,41.10
2023-03-26T07:55:31.234Z,44.40
2023-03-26T07:56:31.328Z,42.20
2023-03-26T07:57:32.231Z,41.70
2023-03-26T07:58:31.220Z,40.00
2023-03-26T07:59:31.211Z,40.60
2023-03-26T08:00:31.185Z,46.10
2023-03-26T08:01:31.172Z,40.30
2023-03-26T08:02:31.227Z,42.90
2023-03-26T08:03:31.294Z,43.80
2023-03-26T08:04:31.259Z,41.20
2023-03-26T08:05:31.138Z,44.20
2023-03-26T08:06:31.150Z,43.70
2023-03-26T08:07:31.110Z,41.20
2023-03-26T08:08:31.105Z,36.20
2023-03-26T08:09:31.157Z,52.80
2023-03-26T08:10:31.085Z,38.10
2023-03-26T08:11:31.088Z,41.90
2023-03-26T08:12:31.102Z,44.10
2023-03-26T08:13:31.065Z,36.50
2023-03-26T08:14:31.052Z,40.30
2023-03-26T08:15:31.133Z,42.40
2023-03-26T08:16:31.030Z,41.50
2023-03-26T08:17:31.423Z,42.30
2023-03-26T08:18:31.007Z,41.10
2023-03-26T08:19:30.991Z,40.10
2023-03-26T08:20:31.045Z,40.80
2023-03-26T08:21:30.961Z,40.30
2023-03-26T08:22:30.975Z,37.50
2023-03-26T08:23:30.960Z,42.70
2023-03-26T08:24:30.949Z,41.10
2023-03-26T08:25:30.945Z,39.30
2023-03-26T08:26:30.915Z,40.40
2023-03-26T08:27:30.904Z,37.80
2023-03-26T08:28:30.899Z,38.90
2023-03-26T08:29:30.881Z,43.50
2023-03-26T08:30:30.892Z,38.30
2023-03-26T08:31:30.919Z,48.20
2023-03-26T08:32:30.875Z,45.70
2023-03-26T08:33:30.840Z,37.60
2023-03-26T08:34:30.843Z,42.00
2023-03-26T08:35:30.867Z,39.80
2023-03-26T08:36:30.813Z,37.50
2023-03-26T08:37:30.804Z,40.30
2023-03-26T08:38:30.814Z,39.90
2023-03-26T08:39:30.776Z,45.00
2023-03-26T08:40:30.790Z,46.10
2023-03-26T08:41:30.759Z,47.30
2023-03-26T08:42:30.796Z,41.40
2023-03-26T08:43:30.764Z,41.90
2023-03-26T08:44:30.732Z,41.30
2023-03-26T08:45:30.736Z,45.20
2023-03-26T08:46:30.747Z,43.40
2023-03-26T08:47:30.722Z,38.80
2023-03-26T08:48:30.701Z,44.50
2023-03-26T08:49:30.676Z,46.60
2023-03-26T08:50:30.695Z,39.40
2023-03-26T08:51:30.655Z,38.70
2023-03-26T08:52:30.665Z,38.60
2023-03-26T08:53:30.633Z,39.50
2023-03-26T08:54:30.651Z,47.10
2023-03-26T08:55:30.628Z,51.30
2023-03-26T08:56:30.625Z,45.60
2023-03-26T08:57:30.589Z,45.30
2023-03-26T08:58:30.587Z,37.20
2023-03-26T08:59:30.582Z,45.00
2023-03-26T09:00:30.591Z,40.80
2023-03-26T09:01:30.621Z,38.70
2023-03-26T09:02:30.554Z,40.10
2023-03-26T09:03:30.571Z,42.80
2023-03-26T09:04:30.530Z,40.90
2023-03-26T09:05:30.544Z,42.80
2023-03-26T09:06:30.502Z,37.10
2023-03-26T09:07:30.493Z,43.40
2023-03-26T09:08:30.492Z,41.80
2023-03-26T09:09:30.472Z,42.70
2023-03-26T09:10:30.499Z,38.70
2023-03-26T09:11:30.459Z,40.30
2023-03-26T09:12:30.445Z,41.90
2023-03-26T09:13:30.456Z,42.80
2023-03-26T09:14:30.432Z,41.30
2023-03-26T09:15:30.430Z,36.70
2023-03-26T09:16:30.433Z,40.20
2023-03-26T09:17:30.403Z,35.20
2023-03-26T09:18:30.423Z,40.80
2023-03-26T09:19:30.378Z,43.40
2023-03-26T09:20:30.388Z,39.60
2023-03-26T09:21:30.348Z,37.60
2023-03-26T09:22:30.354Z,46.30
2023-03-26T09:23:30.335Z,33.60
2023-03-26T09:24:30.319Z,35.40
2023-03-26T09:25:30.352Z,39.00
2023-03-26T09:26:30.317Z,37.30
2023-03-26T09:27:30.297Z,37.80
2023-03-26T09:28:30.292Z,40.00
2023-03-26T09:29:32.369Z,39.00
2023-03-26T09:30:30.278Z,46.60
2023-03-26T09:31:30.267Z,38.60
2023-03-26T09:32:30.315Z,37.10
2023-03-26T09:33:30.227Z,38.10
2023-03-26T09:34:30.244Z,41.30
2023-03-26T09:35:30.297Z,36.90
2023-03-26T09:36:30.201Z,34.20
2023-03-26T09:37:30.187Z,38.60
2023-03-26T09:38:30.195Z,41.70
2023-03-26T09:39:30.170Z,35.40
2023-03-26T09:40:30.177Z,35.70
2023-03-26T09:41:30.149Z,40.00
2023-03-26T09:42:30.133Z,38.80
2023-03-26T09:43:30.132Z,42.80
2023-03-26T09:44:30.128Z,38.80
2023-03-26T09:45:30.145Z,38.10
2023-03-26T09:46:30.099Z,36.40
2023-03-26T09:47:30.139Z,39.70
2023-03-26T09:48:30.087Z,42.40
2023-03-26T09:49:30.083Z,40.10
2023-03-26T09:50:30.079Z,37.20
2023-03-26T09:51:30.048Z,39.90
2023-03-26T09:52:30.034Z,39.30
2023-03-26T09:53:30.034Z,37.10
2023-03-26T09:54:30.021Z,37.90
2023-03-26T09:55:30.054Z,35.00
2023-03-26T09:56:30.051Z,37.40
2023-03-26T09:57:30.007Z,37.10
2023-03-26T09:58:29.978Z,35.30
2023-03-26T09:59:29.969Z,39.50
2023-03-26T10:00:29.966Z,34.40
2023-03-26T10:01:30.033Z,35.70
2023-03-26T10:02:46.107Z,43.50
2023-03-26T10:03:30.981Z,37.30
2023-03-26T10:04:29.959Z,34.50
2023-03-26T10:05:29.979Z,34.40
2023-03-26T10:06:29.898Z,37.30
2023-03-26T10:07:29.893Z,34.00
2023-03-26T10:08:32.179Z,35.60
2023-03-26T10:09:29.869Z,39.10
2023-03-26T10:10:29.857Z,35.20
2023-03-26T10:11:29.843Z,34.10
2023-03-26T10:12:29.840Z,34.40
2023-03-26T10:13:29.828Z,33.80
2023-03-26T10:14:29.817Z,34.40
2023-03-26T10:15:29.879Z,35.30
2023-03-26T10:16:29.812Z,35.10
2023-03-26T10:17:29.829Z,38.40
2023-03-26T10:18:30.263Z,36.10
2023-03-26T10:19:29.761Z,36.70
2023-03-26T10:20:29.770Z,37.50
2023-03-26T10:21:29.742Z,33.10
2023-03-26T10:22:29.726Z,33.00
2023-03-26T10:23:29.718Z,34.20
2023-03-26T10:24:29.723Z,33.90
2023-03-26T10:25:29.805Z,38.50
2023-03-26T10:26:29.698Z,40.40
2023-03-26T10:27:29.693Z,32.90
2023-03-26T10:28:29.667Z,34.50
2023-03-26T10:29:29.661Z,34.70
2023-03-26T10:30:29.696Z,29.90
2023-03-26T10:31:29.639Z,37.50
2023-03-26T10:32:29.630Z,35.30
2023-03-26T10:33:29.621Z,34.90
2023-03-26T10:34:29.816Z,33.90
2023-03-26T10:35:29.710Z,36.60
2023-03-26T10:36:29.901Z,36.30
2023-03-26T10:37:29.574Z,38.40
2023-03-26T10:38:29.575Z,34.60
2023-03-26T10:39:37.636Z,37.60
2023-03-26T10:40:30.558Z,33.60
2023-03-26T10:41:29.542Z,36.10
2023-03-26T10:42:29.539Z,32.10
2023-03-26T10:43:29.509Z,30.00
2023-03-26T10:44:29.490Z,43.10
2023-03-26T10:45:29.525Z,33.60
2023-03-26T10:46:29.513Z,34.20
2023-03-26T10:47:29.487Z,34.70
2023-03-26T10:48:29.452Z,33.10
2023-03-26T10:49:29.446Z,30.00
2023-03-26T10:50:29.449Z,33.50
2023-03-26T10:51:29.433Z,35.40
2023-03-26T10:52:29.414Z,34.10
2023-03-26T10:53:29.402Z,36.30
2023-03-26T10:54:29.397Z,34.30
2023-03-26T10:55:29.426Z,35.90
2023-03-26T10:56:29.378Z,33.00
2023-03-26T10:57:29.371Z,33.00
2023-03-26T10:58:29.353Z,35.40
2023-03-26T10:59:30.342Z,36.40
2023-03-26T11:00:29.347Z,28.50
2023-03-26T11:01:29.389Z,32.80
2023-03-26T11:02:30.738Z,36.50
2023-03-26T11:03:29.306Z,35.60
2023-03-26T11:04:29.297Z,39.30
2023-03-26T11:05:29.352Z,35.20
2023-03-26T11:06:29.278Z,34.20
2023-03-26T11:07:29.277Z,35.80
2023-03-26T11:08:31.466Z,30.60
2023-03-26T11:09:29.251Z,26.20
2023-03-26T11:10:29.243Z,31.60
2023-03-26T11:11:29.219Z,32.20
2023-03-26T11:12:29.225Z,32.20
2023-03-26T11:13:29.220Z,55.20
2023-03-26T11:14:34.826Z,45.20
2023-03-26T11:15:30.223Z,34.30
2023-03-26T11:16:29.176Z,36.60
2023-03-26T11:17:40.864Z,30.60
2023-03-26T11:18:30.151Z,30.90
2023-03-26T11:19:29.144Z,34.10
2023-03-26T11:20:29.152Z,38.00
2023-03-26T11:21:29.148Z,35.40
2023-03-26T11:22:29.112Z,35.70
2023-03-26T11:23:29.102Z,32.00
2023-03-26T11:24:29.090Z,30.70
2023-03-26T11:25:29.096Z,31.60
2023-03-26T11:26:29.070Z,28.40
2023-03-26T11:27:29.060Z,33.20
2023-03-26T11:28:29.062Z,33.40
2023-03-26T11:29:31.281Z,32.00
2023-03-26T11:30:29.041Z,41.30
2023-03-26T11:31:29.071Z,31.90
2023-03-26T11:32:29.027Z,24.80
2023-03-26T11:33:32.553Z,26.40
2023-03-26T11:34:28.989Z,29.70
2023-03-26T11:35:40.969Z,28.20
2023-03-26T11:36:29.977Z,37.10
2023-03-26T11:37:29.003Z,33.00
2023-03-26T11:38:28.989Z,32.20
2023-03-26T11:39:28.945Z,30.20
2023-03-26T11:40:28.924Z,19.90
2023-03-26T11:41:28.965Z,17.10
2023-03-26T11:42:28.939Z,13.00
2023-03-26T11:43:28.901Z,10.70
2023-03-26T11:44:28.895Z,9.60
2023-03-26T11:45:28.878Z,9.90
2023-03-26T11:46:28.957Z,8.80
2023-03-26T11:47:28.897Z,9.80
2023-03-26T11:48:28.849Z,10.20
2023-03-26T11:49:28.867Z,8.00
2023-03-26T11:50:28.843Z,10.40
2023-03-26T11:51:28.840Z,7.40
2023-03-26T11:52:28.804Z,12.80
2023-03-26T11:53:28.801Z,10.40
2023-03-26T11:54:28.790Z,10.60
2023-03-26T11:55:28.778Z,11.50
2023-03-26T11:56:28.781Z,13.10
2023-03-26T11:57:28.813Z,13.10
2023-03-26T11:58:28.746Z,13.00
2023-03-26T11:59:28.729Z,11.10
2023-03-26T12:00:28.745Z,12.60
2023-03-26T12:01:28.725Z,11.90
2023-03-26T12:02:28.767Z,13.80
2023-03-26T12:03:28.820Z,10.90
2023-03-26T12:04:30.708Z,13.80
2023-03-26T12:05:28.666Z,9.90
2023-03-26T12:06:28.673Z,11.80
2023-03-26T12:07:28.671Z,11.20
2023-03-26T12:08:28.655Z,16.60
2023-03-26T12:09:28.632Z,16.90
2023-03-26T12:10:28.630Z,18.10
2023-03-26T12:11:28.632Z,18.70
2023-03-26T12:12:28.614Z,9.60
2023-03-26T12:13:28.624Z,10.90
2023-03-26T12:14:28.584Z,11.50
2023-03-26T12:15:28.563Z,6.20
2023-03-26T12:16:28.575Z,7.90
2023-03-26T12:17:31.356Z,8.20
2023-03-26T12:18:28.539Z,6.80
2023-03-26T12:19:28.520Z,7.10
2023-03-26T12:20:28.534Z,9.30
2023-03-26T12:21:28.550Z,8.30
2023-03-26T12:22:28.486Z,4.70
2023-03-26T12:23:28.480Z,4.80
2023-03-26T12:24:28.488Z,4.80
2023-03-26T12:25:28.463Z,7.80
2023-03-26T12:26:28.459Z,5.40
2023-03-26T12:27:28.567Z,4.90
2023-03-26T12:28:28.428Z,5.70
2023-03-26T12:29:28.426Z,4.50
2023-03-26T12:30:28.405Z,4.60
2023-03-26T12:31:28.505Z,1.90
2023-03-26T12:32:42.968Z,6.50
2023-03-26T12:33:29.457Z,4.40
2023-03-26T12:34:28.369Z,2.20
2023-03-26T12:35:28.395Z,3.80
2023-03-26T12:36:28.359Z,3.50
2023-03-26T12:37:28.327Z,6.10
2023-03-26T12:38:28.322Z,5.30
2023-03-26T12:40:10.203Z,3.60
2023-03-26T12:40:29.310Z,2.20
2023-03-26T12:44:46.550Z,4.40
2023-03-26T12:44:47.105Z,4.70
2023-03-26T12:44:50.878Z,3.20
2023-03-26T12:44:56.532Z,4.40
2023-03-26T12:45:29.241Z,5.10
2023-03-26T12:47:56.037Z,2.10
2023-03-26T12:47:57.212Z,3.00
2023-03-26T12:48:29.289Z,3.60
2023-03-26T12:49:28.244Z,2.20
2023-03-26T12:50:34.199Z,2.90
2023-03-26T12:51:29.203Z,6.30
2023-03-26T12:52:28.181Z,7.50
2023-03-26T12:53:28.167Z,2.70
2023-03-26T12:54:28.159Z,5.50
2023-03-26T12:55:28.141Z,3.10
2023-03-26T12:56:28.152Z,3.00
2023-03-26T12:57:28.181Z,2.90
2023-03-26T12:58:28.119Z,6.60
2023-03-26T12:59:28.107Z,4.80
2023-03-26T13:00:28.095Z,3.80
2023-03-26T13:01:28.128Z,6.80